sensor_id;sensor_type;location;lat;lon;timestamp;P1;durP1;ratioP1;P2;durP2;ratioP2
28070;SDS011;15383;48.408;9.968;2023-06-24T15:01:09;6.15;;;3.63;;
28070;SDS011;15383;48.408;9.968;2023-06-24T15:03:35;6.05;;;3.47;;
28070;SDS011;15383;48.408;9.968;2023-06-24T15:06:01;7.97;;;3.92;;
28070;SDS011;15383;48.408;9.968;2023-06-24T15:08:26;5.45;;;3.15;;
28070;SDS011;15383;48.408;9.968;2023-06-24T15:10:52;3.65;;;3.00;;
28070;SDS011;15383;48.408;9.968;2023-06-24T15:13:18;5.18;;;3.40;;
28070;SDS011;15383;48.408;9.968;2023-06-24T15:15:44;8.02;;;3.72;;
28070;SDS011;15383;48.408;9.968;2023-06-24T15:18:10;7.45;;;4.22;;
28070;SDS011;15383;48.408;9.968;2023-06-24T15:20:35;4.45;;;3.15;;
28070;SDS011;15383;48.408;9.968;2023-06-24T15:23:01;8.85;;;3.65;;
28070;SDS011;15383;48.408;9.968;2023-06-24T15:25:27;5.85;;;3.25;;
28070;SDS011;15383;48.408;9.968;2023-06-24T15:27:53;6.15;;;3.17;;
28070;SDS011;15383;48.408;9.968;2023-06-24T15:30:19;6.97;;;3.50;;
28070;SDS011;15383;48.408;9.968;2023-06-24T15:32:44;5.38;;;3.28;;
28070;SDS011;15383;48.408;9.968;2023-06-24T15:35:13;5.68;;;3.42;;
28070;SDS011;15383;48.408;9.968;2023-06-24T15:37:38;6.30;;;2.67;;
28070;SDS011;15383;48.408;9.968;2023-06-24T15:40:07;6.70;;;3.28;;
28070;SDS011;15383;48.408;9.968;2023-06-24T15:42:36;4.45;;;2.95;;
28070;SDS011;15383;48.408;9.968;2023-06-24T15:45:03;5.50;;;2.95;;
28070;SDS011;15383;48.408;9.968;2023-06-24T15:47:30;7.53;;;3.90;;
28070;SDS011;15383;48.408;9.968;2023-06-24T15:49:55;5.55;;;3.13;;
28070;SDS011;15383;48.408;9.968;2023-06-24T15:52:42;5.57;;;3.00;;
28070;SDS011;15383;48.408;9.968;2023-06-24T15:58:08;6.60;;;3.08;;
28070;SDS011;15383;48.408;9.968;2023-06-24T16:00:34;3.75;;;3.30;;
28070;SDS011;15383;48.408;9.968;2023-06-24T16:03:13;7.60;;;3.25;;
28070;SDS011;15383;48.408;9.968;2023-06-24T16:12:44;5.68;;;3.47;;
28070;SDS011;15383;48.408;9.968;2023-06-24T16:15:20;5.22;;;2.90;;
28070;SDS011;15383;48.408;9.968;2023-06-24T16:17:48;3.92;;;2.72;;
28070;SDS011;15383;48.408;9.968;2023-06-24T16:20:14;7.10;;;3.95;;
28070;SDS011;15383;48.408;9.968;2023-06-24T16:22:44;8.90;;;3.75;;
28070;SDS011;15383;48.408;9.968;2023-06-24T16:25:11;4.50;;;2.92;;
28070;SDS011;15383;48.408;9.968;2023-06-24T16:27:40;5.90;;;3.13;;
28070;SDS011;15383;48.408;9.968;2023-06-24T16:30:11;6.60;;;3.40;;
28070;SDS011;15383;48.408;9.968;2023-06-24T16:32:37;8.25;;;4.25;;
28070;SDS011;15383;48.408;9.968;2023-06-24T16:35:08;5.40;;;3.70;;
28070;SDS011;15383;48.408;9.968;2023-06-24T16:37:58;6.65;;;3.28;;
28070;SDS011;15383;48.408;9.968;2023-06-24T16:40:24;7.20;;;4.13;;
28070;SDS011;15383;48.408;9.968;2023-06-24T16:42:50;8.20;;;3.67;;
28070;SDS011;15383;48.408;9.968;2023-06-24T16:45:34;3.38;;;2.78;;
28070;SDS011;15383;48.408;9.968;2023-06-24T16:48:01;4.00;;;2.88;;
28070;SDS011;15383;48.408;9.968;2023-06-24T16:50:27;4.85;;;3.38;;
28070;SDS011;15383;48.408;9.968;2023-06-24T16:52:52;6.38;;;3.80;;
28070;SDS011;15383;48.408;9.968;2023-06-24T16:55:18;5.05;;;2.95;;
28070;SDS011;15383;48.408;9.968;2023-06-24T16:57:44;6.07;;;3.72;;
28070;SDS011;15383;48.408;9.968;2023-06-24T17:06:43;6.57;;;3.60;;
28070;SDS011;15383;48.408;9.968;2023-06-24T17:09:42;8.60;;;3.28;;
28070;SDS011;15383;48.408;9.968;2023-06-24T17:15:04;6.22;;;2.95;;
28070;SDS011;15383;48.408;9.968;2023-06-24T17:20:06;5.03;;;3.55;;
28070;SDS011;15383;48.408;9.968;2023-06-24T17:22:32;3.95;;;2.75;;
28070;SDS011;15383;48.408;9.968;2023-06-24T17:24:58;4.72;;;3.40;;
28070;SDS011;15383;48.408;9.968;2023-06-24T17:27:26;8.20;;;3.88;;
28070;SDS011;15383;48.408;9.968;2023-06-24T17:29:55;5.22;;;2.75;;
28070;SDS011;15383;48.408;9.968;2023-06-24T17:32:21;31.60;;;12.27;;
28070;SDS011;15383;48.408;9.968;2023-06-24T17:34:47;25.05;;;10.20;;
28070;SDS011;15383;48.408;9.968;2023-06-24T17:37:13;14.85;;;6.40;;
28070;SDS011;15383;48.408;9.968;2023-06-24T17:39:39;23.67;;;9.30;;
28070;SDS011;15383;48.408;9.968;2023-06-24T17:42:04;7.05;;;4.03;;
28070;SDS011;15383;48.408;9.968;2023-06-24T17:44:30;8.65;;;4.25;;
28070;SDS011;15383;48.408;9.968;2023-06-24T17:46:56;7.68;;;3.80;;
28070;SDS011;15383;48.408;9.968;2023-06-24T17:49:21;14.95;;;7.05;;
28070;SDS011;15383;48.408;9.968;2023-06-24T17:51:47;13.75;;;6.70;;
28070;SDS011;15383;48.408;9.968;2023-06-24T17:54:13;9.27;;;4.32;;
28070;SDS011;15383;48.408;9.968;2023-06-24T17:56:38;11.20;;;6.07;;
28070;SDS011;15383;48.408;9.968;2023-06-24T17:59:05;6.95;;;4.20;;
28070;SDS011;15383;48.408;9.968;2023-06-24T18:01:32;7.43;;;4.32;;
28070;SDS011;15383;48.408;9.968;2023-06-24T18:03:58;17.73;;;7.30;;
28070;SDS011;15383;48.408;9.968;2023-06-24T18:06:23;25.60;;;12.70;;
28070;SDS011;15383;48.408;9.968;2023-06-24T18:08:49;50.80;;;20.48;;
28070;SDS011;15383;48.408;9.968;2023-06-24T18:11:16;47.47;;;19.15;;
28070;SDS011;15383;48.408;9.968;2023-06-24T18:13:41;8.20;;;4.15;;
28070;SDS011;15383;48.408;9.968;2023-06-24T18:16:07;5.97;;;3.00;;
28070;SDS011;15383;48.408;9.968;2023-06-24T18:18:33;6.05;;;3.47;;
28070;SDS011;15383;48.408;9.968;2023-06-24T18:20:58;5.63;;;3.22;;
28070;SDS011;15383;48.408;9.968;2023-06-24T18:23:24;12.60;;;4.07;;
28070;SDS011;15383;48.408;9.968;2023-06-24T18:25:50;5.50;;;3.75;;
28070;SDS011;15383;48.408;9.968;2023-06-24T18:28:15;5.50;;;3.28;;
28070;SDS011;15383;48.408;9.968;2023-06-24T18:30:41;5.15;;;3.25;;
28070;SDS011;15383;48.408;9.968;2023-06-24T18:33:06;5.32;;;2.90;;
28070;SDS011;15383;48.408;9.968;2023-06-24T18:35:32;4.68;;;3.22;;
28070;SDS011;15383;48.408;9.968;2023-06-24T18:37:58;4.88;;;3.42;;
28070;SDS011;15383;48.408;9.968;2023-06-24T18:40:24;7.47;;;4.15;;
28070;SDS011;15383;48.408;9.968;2023-06-24T18:42:50;15.98;;;7.93;;
28070;SDS011;15383;48.408;9.968;2023-06-24T18:45:16;11.10;;;5.00;;
28070;SDS011;15383;48.408;9.968;2023-06-24T18:47:42;8.32;;;4.80;;
28070;SDS011;15383;48.408;9.968;2023-06-24T18:50:08;7.90;;;5.07;;
28070;SDS011;15383;48.408;9.968;2023-06-24T18:52:34;6.78;;;4.20;;
28070;SDS011;15383;48.408;9.968;2023-06-24T18:55:01;5.93;;;4.05;;
28070;SDS011;15383;48.408;9.968;2023-06-24T18:57:27;7.15;;;3.80;;
28070;SDS011;15383;48.408;9.968;2023-06-24T18:59:53;6.72;;;3.83;;
28070;SDS011;15383;48.408;9.968;2023-06-24T19:02:18;8.45;;;4.43;;
28070;SDS011;15383;48.408;9.968;2023-06-24T19:04:44;7.13;;;4.55;;
28070;SDS011;15383;48.408;9.968;2023-06-24T19:07:10;7.07;;;4.95;;
28070;SDS011;15383;48.408;9.968;2023-06-24T19:09:35;11.60;;;5.20;;
28070;SDS011;15383;48.408;9.968;2023-06-24T19:12:01;9.93;;;5.40;;
28070;SDS011;15383;48.408;9.968;2023-06-24T19:14:27;11.00;;;5.93;;
28070;SDS011;15383;48.408;9.968;2023-06-24T19:16:53;12.73;;;5.13;;
28070;SDS011;15383;48.408;9.968;2023-06-24T19:19:18;14.02;;;5.32;;
28070;SDS011;15383;48.408;9.968;2023-06-24T19:21:44;8.90;;;3.97;;
28070;SDS011;15383;48.408;9.968;2023-06-24T19:24:10;6.63;;;4.20;;
28070;SDS011;15383;48.408;9.968;2023-06-24T19:26:35;5.88;;;3.75;;
28070;SDS011;15383;48.408;9.968;2023-06-24T19:29:01;5.68;;;3.47;;
28070;SDS011;15383;48.408;9.968;2023-06-24T19:31:27;7.72;;;3.67;;
28070;SDS011;15383;48.408;9.968;2023-06-24T19:33:52;6.38;;;3.55;;
28070;SDS011;15383;48.408;9.968;2023-06-24T19:36:18;8.05;;;3.67;;
28070;SDS011;15383;48.408;9.968;2023-06-24T19:38:44;6.50;;;3.60;;
28070;SDS011;15383;48.408;9.968;2023-06-24T19:41:09;7.03;;;3.88;;
28070;SDS011;15383;48.408;9.968;2023-06-24T19:43:35;11.38;;;3.63;;
28070;SDS011;15383;48.408;9.968;2023-06-24T19:46:12;5.60;;;3.15;;
28070;SDS011;15383;48.408;9.968;2023-06-24T19:48:37;6.40;;;4.00;;
28070;SDS011;15383;48.408;9.968;2023-06-24T19:51:03;7.25;;;3.83;;
28070;SDS011;15383;48.408;9.968;2023-06-24T19:53:28;6.30;;;3.67;;
28070;SDS011;15383;48.408;9.968;2023-06-24T19:55:54;7.95;;;4.20;;
28070;SDS011;15383;48.408;9.968;2023-06-24T19:58:20;5.50;;;3.90;;
28070;SDS011;15383;48.408;9.968;2023-06-24T20:00:45;6.93;;;3.78;;
28070;SDS011;15383;48.408;9.968;2023-06-24T20:03:11;6.63;;;3.67;;
28070;SDS011;15383;48.408;9.968;2023-06-24T20:05:45;11.80;;;3.67;;
28070;SDS011;15383;48.408;9.968;2023-06-24T20:08:11;5.35;;;3.55;;
28070;SDS011;15383;48.408;9.968;2023-06-24T20:10:37;6.15;;;3.55;;
28070;SDS011;15383;48.408;9.968;2023-06-24T20:13:02;4.57;;;3.10;;
28070;SDS011;15383;48.408;9.968;2023-06-24T20:15:31;7.00;;;3.95;;
28070;SDS011;15383;48.408;9.968;2023-06-24T20:18:00;7.65;;;4.20;;
28070;SDS011;15383;48.408;9.968;2023-06-24T20:20:25;9.93;;;4.10;;
28070;SDS011;15383;48.408;9.968;2023-06-24T20:22:51;7.07;;;4.35;;
28070;SDS011;15383;48.408;9.968;2023-06-24T20:25:17;7.22;;;4.15;;
28070;SDS011;15383;48.408;9.968;2023-06-24T20:27:43;6.63;;;4.13;;
28070;SDS011;15383;48.408;9.968;2023-06-24T20:30:08;7.80;;;3.97;;
28070;SDS011;15383;48.408;9.968;2023-06-24T20:32:34;6.50;;;3.90;;
28070;SDS011;15383;48.408;9.968;2023-06-24T20:35:00;10.07;;;4.60;;
28070;SDS011;15383;48.408;9.968;2023-06-24T20:37:26;8.77;;;4.18;;
28070;SDS011;15383;48.408;9.968;2023-06-24T20:39:51;8.95;;;3.95;;
28070;SDS011;15383;48.408;9.968;2023-06-24T20:42:17;9.43;;;4.97;;
28070;SDS011;15383;48.408;9.968;2023-06-24T20:44:46;6.28;;;4.05;;
28070;SDS011;15383;48.408;9.968;2023-06-24T20:47:11;7.75;;;5.00;;
28070;SDS011;15383;48.408;9.968;2023-06-24T20:49:37;9.10;;;5.15;;
28070;SDS011;15383;48.408;9.968;2023-06-24T20:52:03;11.50;;;5.20;;
28070;SDS011;15383;48.408;9.968;2023-06-24T20:54:28;13.52;;;4.82;;
28070;SDS011;15383;48.408;9.968;2023-06-24T20:56:56;8.20;;;3.97;;
28070;SDS011;15383;48.408;9.968;2023-06-24T20:59:22;7.90;;;4.20;;
28070;SDS011;15383;48.408;9.968;2023-06-24T21:01:47;8.65;;;4.30;;
28070;SDS011;15383;48.408;9.968;2023-06-24T21:04:13;8.15;;;4.00;;
28070;SDS011;15383;48.408;9.968;2023-06-24T21:06:40;12.00;;;3.80;;
28070;SDS011;15383;48.408;9.968;2023-06-24T21:09:06;9.25;;;4.88;;
28070;SDS011;15383;48.408;9.968;2023-06-24T21:11:32;6.95;;;5.00;;
28070;SDS011;15383;48.408;9.968;2023-06-24T21:13:57;7.97;;;5.03;;
28070;SDS011;15383;48.408;9.968;2023-06-24T21:16:23;9.23;;;4.70;;
28070;SDS011;15383;48.408;9.968;2023-06-24T21:18:49;10.15;;;4.43;;
28070;SDS011;15383;48.408;9.968;2023-06-24T21:21:15;10.57;;;5.15;;
28070;SDS011;15383;48.408;9.968;2023-06-24T21:23:41;7.38;;;4.90;;
28070;SDS011;15383;48.408;9.968;2023-06-24T21:26:07;9.95;;;5.03;;
28070;SDS011;15383;48.408;9.968;2023-06-24T21:28:32;9.18;;;4.93;;
28070;SDS011;15383;48.408;9.968;2023-06-24T21:30:58;9.45;;;5.20;;
28070;SDS011;15383;48.408;9.968;2023-06-24T21:33:24;8.40;;;4.70;;
28070;SDS011;15383;48.408;9.968;2023-06-24T21:35:50;13.05;;;4.82;;
28070;SDS011;15383;48.408;9.968;2023-06-24T21:38:15;6.93;;;4.38;;
28070;SDS011;15383;48.408;9.968;2023-06-24T21:40:41;10.75;;;5.20;;
28070;SDS011;15383;48.408;9.968;2023-06-24T21:43:06;8.95;;;4.28;;
28070;SDS011;15383;48.408;9.968;2023-06-24T21:45:32;7.60;;;4.38;;
28070;SDS011;15383;48.408;9.968;2023-06-24T21:47:58;9.77;;;4.30;;
28070;SDS011;15383;48.408;9.968;2023-06-24T21:50:24;10.20;;;4.40;;
28070;SDS011;15383;48.408;9.968;2023-06-24T21:52:49;5.57;;;4.20;;
28070;SDS011;15383;48.408;9.968;2023-06-24T21:55:15;11.52;;;5.13;;
28070;SDS011;15383;48.408;9.968;2023-06-24T21:57:41;9.73;;;4.60;;
28070;SDS011;15383;48.408;9.968;2023-06-24T22:00:08;10.95;;;4.78;;
28070;SDS011;15383;48.408;9.968;2023-06-24T22:02:43;6.55;;;4.40;;
28070;SDS011;15383;48.408;9.968;2023-06-24T22:05:09;7.03;;;4.22;;
28070;SDS011;15383;48.408;9.968;2023-06-24T22:07:35;8.35;;;4.18;;
28070;SDS011;15383;48.408;9.968;2023-06-24T22:10:00;11.90;;;5.75;;
28070;SDS011;15383;48.408;9.968;2023-06-24T22:12:26;7.38;;;5.07;;
28070;SDS011;15383;48.408;9.968;2023-06-24T22:14:52;10.00;;;4.70;;
28070;SDS011;15383;48.408;9.968;2023-06-24T22:17:17;8.38;;;5.22;;
28070;SDS011;15383;48.408;9.968;2023-06-24T22:19:43;9.95;;;5.88;;
28070;SDS011;15383;48.408;9.968;2023-06-24T22:22:08;10.73;;;5.50;;
28070;SDS011;15383;48.408;9.968;2023-06-24T22:24:34;11.50;;;6.18;;
28070;SDS011;15383;48.408;9.968;2023-06-24T22:27:00;11.57;;;5.97;;
28070;SDS011;15383;48.408;9.968;2023-06-24T22:29:25;9.63;;;5.55;;
28070;SDS011;15383;48.408;9.968;2023-06-24T22:31:51;7.65;;;4.60;;
28070;SDS011;15383;48.408;9.968;2023-06-24T22:34:17;8.27;;;5.63;;
28070;SDS011;15383;48.408;9.968;2023-06-24T22:36:42;7.82;;;4.78;;
28070;SDS011;15383;48.408;9.968;2023-06-24T22:39:08;7.90;;;4.35;;
28070;SDS011;15383;48.408;9.968;2023-06-24T22:41:34;6.22;;;4.20;;
28070;SDS011;15383;48.408;9.968;2023-06-24T22:43:59;8.20;;;4.72;;
28070;SDS011;15383;48.408;9.968;2023-06-24T22:46:25;7.50;;;5.13;;
28070;SDS011;15383;48.408;9.968;2023-06-24T22:48:51;7.78;;;5.00;;
28070;SDS011;15383;48.408;9.968;2023-06-24T22:51:17;7.28;;;4.35;;
28070;SDS011;15383;48.408;9.968;2023-06-24T22:53:42;6.38;;;3.95;;
28070;SDS011;15383;48.408;9.968;2023-06-24T22:56:10;6.20;;;4.47;;
28070;SDS011;15383;48.408;9.968;2023-06-24T22:58:36;7.43;;;4.28;;
28070;SDS011;15383;48.408;9.968;2023-06-24T23:01:03;7.13;;;4.30;;
28070;SDS011;15383;48.408;9.968;2023-06-24T23:03:29;7.47;;;4.43;;
28070;SDS011;15383;48.408;9.968;2023-06-24T23:05:55;7.40;;;4.20;;
28070;SDS011;15383;48.408;9.968;2023-06-24T23:08:21;8.95;;;4.70;;
28070;SDS011;15383;48.408;9.968;2023-06-24T23:10:47;7.05;;;4.43;;
28070;SDS011;15383;48.408;9.968;2023-06-24T23:13:12;9.70;;;5.43;;
28070;SDS011;15383;48.408;9.968;2023-06-24T23:15:38;5.75;;;4.40;;
28070;SDS011;15383;48.408;9.968;2023-06-24T23:18:05;8.70;;;4.65;;
28070;SDS011;15383;48.408;9.968;2023-06-24T23:20:30;7.25;;;4.80;;
28070;SDS011;15383;48.408;9.968;2023-06-24T23:22:56;10.98;;;5.30;;
28070;SDS011;15383;48.408;9.968;2023-06-24T23:25:22;12.02;;;5.70;;
28070;SDS011;15383;48.408;9.968;2023-06-24T23:27:52;9.00;;;5.38;;
28070;SDS011;15383;48.408;9.968;2023-06-24T23:30:21;8.82;;;5.78;;
28070;SDS011;15383;48.408;9.968;2023-06-24T23:32:50;12.13;;;5.55;;
28070;SDS011;15383;48.408;9.968;2023-06-24T23:35:18;9.85;;;5.57;;
28070;SDS011;15383;48.408;9.968;2023-06-24T23:37:45;9.98;;;5.63;;
28070;SDS011;15383;48.408;9.968;2023-06-24T23:40:10;6.55;;;4.70;;
28070;SDS011;15383;48.408;9.968;2023-06-24T23:42:37;8.65;;;4.75;;
28070;SDS011;15383;48.408;9.968;2023-06-24T23:45:06;11.65;;;6.20;;
28070;SDS011;15383;48.408;9.968;2023-06-24T23:47:32;10.80;;;5.93;;
28070;SDS011;15383;48.408;9.968;2023-06-24T23:49:58;13.80;;;6.38;;
28070;SDS011;15383;48.408;9.968;2023-06-24T23:52:24;15.32;;;6.07;;
28070;SDS011;15383;48.408;9.968;2023-06-24T23:54:50;12.27;;;5.80;;
28070;SDS011;15383;48.408;9.968;2023-06-24T23:57:15;9.27;;;5.13;;
28070;SDS011;15383;48.408;9.968;2023-06-24T23:59:41;10.77;;;5.97;;
